Time;durP1;ratioP1;P1;durP2;ratioP2;P2;SDS_P1;SDS_P2;PMS_P1;PMS_P2;Temp;Humidity;BMP_temperature;BMP_pressure;BME280_temperature;BME280_humidity;BME280_pressure;Samples;Min_cycle;Max_cycle;Signal;HPM_P1;HPM_P2
2023/07/13 00:00:18;;;;;;;16.10;10.27;;;;;;;17.22;100.00;96084.84;2115792;28;20047;-58
2023/07/13 00:01:19;;;;;;;12.82;10.10;;;;;;;17.22;100.00;96082.22;2115010;28;20074;-58
2023/07/13 00:02:20;;;;;;;14.00;10.10;;;;;;;17.23;100.00;96081.28;2115641;28;20043;-58
2023/07/13 00:03:21;;;;;;;16.98;10.07;;;;;;;17.24;100.00;96092.59;2115922;28;20040;-58
2023/07/13 00:04:24;;;;;;;14.65;10.10;;;;;;;17.22;100.00;96084.03;2115671;28;20140;-58
2023/07/13 00:05:27;;;;;;;13.98;10.18;;;;;;;17.18;100.00;96072.88;2105413;28;20427;-58
2023/07/13 00:06:32;;;;;;;16.90;10.65;;;;;;;17.22;100.00;96082.22;2106040;28;20056;-58
2023/07/13 00:07:34;;;;;;;12.30;9.88;;;;;;;17.15;100.00;96071.31;2115344;28;20360;-58
2023/07/13 00:08:35;;;;;;;14.30;10.20;;;;;;;17.22;100.00;96084.84;2115273;28;20043;-58
2023/07/13 00:09:36;;;;;;;13.05;9.98;;;;;;;17.23;100.00;96086.53;2114754;28;20491;-58
2023/07/13 00:10:41;;;;;;;13.93;9.32;;;;;;;17.19;100.00;96078.03;2115219;28;20063;-58
2023/07/13 00:11:42;;;;;;;11.32;9.45;;;;;;;17.23;100.00;96078.66;2115393;28;20059;-58
2023/07/13 00:12:43;;;;;;;16.75;9.30;;;;;;;17.14;100.00;96068.81;2114828;28;20051;-58
2023/07/13 00:13:44;;;;;;;13.27;9.45;;;;;;;17.15;100.00;96079.19;2115665;28;20044;-58
2023/07/13 00:14:45;;;;;;;14.65;9.77;;;;;;;17.18;100.00;96078.97;2114799;28;20530;-58
2023/07/13 00:15:47;;;;;;;14.98;10.45;;;;;;;17.20;100.00;96082.31;2115276;28;20044;-57
2023/07/13 00:16:48;;;;;;;14.48;10.10;;;;;;;17.22;100.00;96078.78;2097736;28;20051;-58
2023/07/13 00:17:50;;;;;;;12.20;8.95;;;;;;;17.23;100.00;96076.03;2097941;28;20060;-58
2023/07/13 00:18:52;;;;;;;14.00;9.27;;;;;;;17.23;100.00;96080.44;2114432;28;20050;-58
2023/07/13 00:19:55;;;;;;;12.90;9.90;;;;;;;17.26;100.00;96080.22;2115224;28;20055;-58
2023/07/13 00:21:04;;;;;;;16.27;10.52;;;;;;;17.22;100.00;96060.41;2115248;28;20043;-57
2023/07/13 00:22:05;;;;;;;12.98;9.73;;;;;;;17.28;100.00;96075.69;2115809;28;20048;-57
2023/07/13 00:23:07;;;;;;;16.25;10.13;;;;;;;17.19;100.00;96077.22;2115352;28;20046;-58
2023/07/13 00:24:12;;;;;;;13.02;10.35;;;;;;;17.25;100.00;96070.69;2114598;28;20059;-57
2023/07/13 00:25:13;;;;;;;17.02;9.55;;;;;;;17.28;100.00;96075.69;2097846;28;20060;-57
2023/07/13 00:26:14;;;;;;;16.20;10.23;;;;;;;17.31;100.00;96072.84;2097879;28;20067;-58
2023/07/13 00:27:17;;;;;;;14.75;10.43;;;;;;;17.30;100.00;96072.00;2115371;28;20044;-58
2023/07/13 00:28:18;;;;;;;17.98;10.07;;;;;;;17.29;100.00;96062.44;2105975;28;20051;-58
2023/07/13 00:29:20;;;;;;;18.02;10.55;;;;;;;17.28;100.00;96066.03;2097924;28;20051;-58
2023/07/13 00:30:22;;;;;;;14.00;10.07;;;;;;;17.27;100.00;96066.13;2105936;28;20048;-58
2023/07/13 00:31:23;;;;;;;14.93;10.27;;;;;;;17.20;100.00;96061.34;2105572;28;20056;-58
2023/07/13 00:32:27;;;;;;;13.23;9.55;;;;;;;17.26;100.00;96077.59;2106126;28;20426;-58
2023/07/13 00:33:28;;;;;;;15.75;9.45;;;;;;;17.19;100.00;96066.72;2115041;28;20044;-58
2023/07/13 00:34:30;;;;;;;11.50;9.35;;;;;;;17.26;100.00;96077.59;2115399;28;20051;-58
2023/07/13 00:35:31;;;;;;;15.52;8.82;;;;;;;17.26;100.00;96075.78;2115173;28;20044;-58
2023/07/13 00:36:32;;;;;;;15.27;10.30;;;;;;;17.25;100.00;96076.75;2115089;28;20467;-58
2023/07/13 00:37:35;;;;;;;16.13;10.50;;;;;;;17.24;100.00;96077.72;2106521;28;20044;-58
2023/07/13 00:38:36;;;;;;;14.73;10.30;;;;;;;17.20;100.00;96065.75;2105711;28;20104;-58
2023/07/13 00:39:38;;;;;;;16.85;10.43;;;;;;;17.27;100.00;96072.25;2097621;28;20056;-58
2023/07/13 00:40:39;;;;;;;12.68;9.70;;;;;;;17.14;100.00;96059.16;2098039;28;20045;-57
2023/07/13 00:41:41;;;;;;;17.35;9.93;;;;;;;17.23;100.00;96076.03;2115223;28;20044;-58
2023/07/13 00:42:42;;;;;;;17.83;10.27;;;;;;;17.19;100.00;96069.34;2114410;28;20139;-58
2023/07/13 00:43:43;;;;;;;14.30;9.70;;;;;;;17.21;100.00;96075.28;2114335;28;20055;-58
2023/07/13 00:45:04;;;;;;;11.40;8.40;;;;;;;17.24;100.00;96076.84;2106182;28;20048;-58
2023/07/13 00:46:16;;;;;;;14.23;10.15;;;;;;;17.24;100.00;96077.72;2100367;28;20059;-58
2023/07/13 00:47:17;;;;;;;12.82;9.50;;;;;;;17.23;100.00;96086.53;2107201;28;20056;-58
2023/07/13 00:48:23;;;;;;;16.65;10.23;;;;;;;17.17;100.00;96061.56;2106114;28;20067;-58
2023/07/13 00:49:26;;;;;;;16.15;10.90;;;;;;;17.15;100.00;96073.94;2098486;28;20049;-58
2023/07/13 00:50:27;;;;;;;13.18;9.90;;;;;;;17.21;100.00;96080.53;2097233;28;20056;-58
2023/07/13 00:51:32;;;;;;;17.13;9.90;;;;;;;17.18;100.00;96073.72;2105973;28;20047;-58
2023/07/13 00:52:34;;;;;;;13.57;9.73;;;;;;;17.18;100.00;96078.13;2115145;28;20494;-58
2023/07/13 00:53:35;;;;;;;14.52;9.63;;;;;;;17.16;100.00;96073.00;2097709;28;20405;-58
2023/07/13 00:54:39;;;;;;;17.25;9.85;;;;;;;17.05;100.00;96053.72;2089007;28;20053;-58
2023/07/13 00:55:40;;;;;;;12.38;9.25;;;;;;;17.13;100.00;96069.75;2097911;28;20040;-58
2023/07/13 00:56:41;;;;;;;17.65;9.77;;;;;;;17.11;100.00;96069.06;2105027;28;20055;-58
2023/07/13 00:57:43;;;;;;;13.07;9.45;;;;;;;17.09;100.00;96069.16;2106258;28;20403;-58
2023/07/13 00:58:44;;;;;;;19.98;11.02;;;;;;;17.09;100.00;96066.53;2106149;28;20044;-58
2023/07/13 00:59:49;;;;;;;14.27;9.88;;;;;;;17.08;100.00;96071.88;2097018;28;20410;-58
2023/07/13 01:00:50;;;;;;;16.10;9.93;;;;;;;17.02;100.00;96070.53;2089919;28;20052;-58
2023/07/13 01:01:51;;;;;;;16.45;10.38;;;;;;;17.02;100.00;96073.16;2089344;28;20041;-58
2023/07/13 01:02:52;;;;;;;25.60;9.88;;;;;;;16.97;100.00;96059.53;2096938;28;20054;-58
2023/07/13 01:03:54;;;;;;;20.10;10.25;;;;;;;17.00;100.00;96064.56;2105858;28;20450;-59
2023/07/13 01:04:56;;;;;;;15.48;10.15;;;;;;;17.00;100.00;96059.34;2105354;28;20423;-58
2023/07/13 01:05:57;;;;;;;15.18;9.98;;;;;;;16.97;100.00;96057.75;2105054;28;20044;-58
2023/07/13 01:06:58;;;;;;;14.77;9.93;;;;;;;16.96;100.00;96055.25;2105041;28;20059;-59
2023/07/13 01:07:59;;;;;;;20.02;10.75;;;;;;;16.93;100.00;96051.03;2105983;28;20047;-59
2023/07/13 01:09:01;;;;;;;16.88;10.25;;;;;;;16.91;100.00;96041.63;2089263;28;20044;-59
2023/07/13 01:10:03;;;;;;;16.25;10.77;;;;;;;16.90;100.00;96042.56;2088674;28;20386;-59
2023/07/13 01:11:04;;;;;;;17.17;10.38;;;;;;;16.83;100.00;96034.28;2097646;28;20148;-59
2023/07/13 01:12:06;;;;;;;12.68;9.95;;;;;;;16.80;100.00;96037.13;2105458;28;20044;-59
2023/07/13 01:13:08;;;;;;;19.33;10.30;;;;;;;16.90;100.00;96055.69;2114199;28;20052;-59
2023/07/13 01:14:09;;;;;;;14.55;10.95;;;;;;;16.87;100.00;96048.03;2104935;28;20048;-58
2023/07/13 01:15:39;;;;;;;15.50;10.63;;;;;;;16.91;100.00;96057.34;2106030;28;20047;-59
2023/07/13 01:16:42;;;;;;;16.10;10.68;;;;;;;16.92;100.00;96057.25;2114082;28;20048;-59
2023/07/13 01:17:43;;;;;;;16.77;11.30;;;;;;;16.83;100.00;96052.66;2115008;28;20074;-59
2023/07/13 01:18:44;;;;;;;17.95;11.10;;;;;;;16.89;100.00;96057.47;2105646;28;20060;-58
2023/07/13 01:19:46;;;;;;;14.43;10.35;;;;;;;16.92;100.00;96062.50;2105985;28;20059;-59
2023/07/13 01:20:57;;;;;;;17.08;11.05;;;;;;;16.89;100.00;96052.22;2114912;28;20054;-58
2023/07/13 01:21:58;;;;;;;19.80;11.65;;;;;;;16.89;100.00;96054.84;2105106;28;20067;-58
2023/07/13 01:22:59;;;;;;;18.52;12.30;;;;;;;16.88;100.00;96057.56;2105202;28;20059;-58
2023/07/13 01:24:02;;;;;;;16.98;11.90;;;;;;;16.80;100.00;96046.78;2105167;28;20063;-58
2023/07/13 01:25:03;;;;;;;24.73;12.25;;;;;;;16.87;100.00;96055.91;2097767;28;20032;-58
2023/07/13 01:26:04;;;;;;;19.73;11.65;;;;;;;16.85;100.00;96056.00;2106031;28;20043;-59
2023/07/13 01:27:07;;;;;;;23.20;12.10;;;;;;;16.90;100.00;96059.16;2114834;28;20032;-58
2023/07/13 01:28:08;;;;;;;16.35;10.85;;;;;;;16.81;100.00;96036.19;2114982;28;20051;-58
2023/07/13 01:29:09;;;;;;;17.55;11.20;;;;;;;16.83;100.00;96041.31;2113986;28;20486;-58
2023/07/13 01:30:13;;;;;;;17.73;11.23;;;;;;;16.88;100.00;96050.53;2105202;28;20055;-59
2023/07/13 01:31:14;;;;;;;17.52;11.05;;;;;;;16.89;100.00;96051.38;2105846;28;20032;-57
2023/07/13 01:32:21;;;;;;;16.95;11.77;;;;;;;16.92;100.00;96044.13;2114858;28;20051;-59
2023/07/13 01:33:22;;;;;;;19.38;12.02;;;;;;;16.92;100.00;96041.50;2106077;28;20044;-59
2023/07/13 01:34:24;;;;;;;20.80;12.07;;;;;;;16.94;100.00;96039.59;2105968;28;20039;-59
2023/07/13 01:35:27;;;;;;;18.30;12.50;;;;;;;16.86;100.00;96028.00;2105304;28;20419;-59
2023/07/13 01:36:28;;;;;;;16.88;11.63;;;;;;;16.92;100.00;96043.28;2105646;28;20090;-59
2023/07/13 01:37:33;;;;;;;19.67;11.65;;;;;;;16.89;100.00;96038.25;2114726;28;20055;-59
2023/07/13 01:38:34;;;;;;;21.15;12.45;;;;;;;16.92;100.00;96041.50;2108353;28;20040;-59
2023/07/13 01:39:35;;;;;;;20.60;12.93;;;;;;;16.92;100.00;96046.75;2108412;28;20063;-59
2023/07/13 01:40:37;;;;;;;21.92;12.18;;;;;;;16.92;100.00;96044.13;2108043;28;20070;-59
2023/07/13 01:41:39;;;;;;;20.17;11.95;;;;;;;16.85;100.00;96035.03;2108600;28;20051;-59
2023/07/13 01:42:41;;;;;;;27.30;14.90;;;;;;;16.93;100.00;96045.81;2108802;28;20059;-59
2023/07/13 01:43:42;;;;;;;22.92;12.70;;;;;;;16.89;100.00;96044.38;2091615;28;20179;-59
2023/07/13 01:44:43;;;;;;;19.40;13.30;;;;;;;16.90;100.00;96047.81;2091307;28;20063;-59
2023/07/13 01:45:44;;;;;;;18.55;12.65;;;;;;;16.84;100.00;96043.84;2108528;28;20495;-59
2023/07/13 01:46:46;;;;;;;24.65;12.80;;;;;;;16.91;100.00;96059.97;2108581;28;20055;-59
2023/07/13 01:47:47;;;;;;;20.73;12.95;;;;;;;16.87;100.00;96059.38;2099829;28;20071;-59
2023/07/13 01:48:48;;;;;;;20.48;12.75;;;;;;;16.87;100.00;96069.84;2108820;28;20435;-59
2023/07/13 01:49:51;;;;;;;17.15;12.70;;;;;;;16.87;100.00;96064.59;2108001;28;20054;-59
2023/07/13 01:50:52;;;;;;;23.05;12.93;;;;;;;16.87;100.00;96066.41;2109049;28;20044;-59
2023/07/13 01:51:53;;;;;;;19.58;12.65;;;;;;;16.87;100.00;96064.59;2117911;28;20069;-58
2023/07/13 01:52:55;;;;;;;20.60;14.23;;;;;;;16.82;100.00;96065.88;2108445;28;20046;-58
2023/07/13 01:53:56;;;;;;;20.80;13.02;;;;;;;16.84;100.00;96063.97;2108676;28;20427;-60
2023/07/13 01:54:58;;;;;;;18.27;12.52;;;;;;;16.82;100.00;96069.34;2117581;28;20043;-59
2023/07/13 01:55:59;;;;;;;21.33;12.63;;;;;;;16.82;100.00;96065.88;2117769;28;20066;-59
2023/07/13 01:57:00;;;;;;;23.27;12.90;;;;;;;16.79;100.00;96063.50;2108446;28;20044;-59
2023/07/13 01:58:02;;;;;;;19.40;13.30;;;;;;;16.70;100.00;96046.56;2091779;28;20049;-59
2023/07/13 01:59:03;;;;;;;19.33;13.82;;;;;;;16.82;100.00;96058.03;2092024;28;20044;-59
2023/07/13 02:00:08;;;;;;;16.13;11.77;;;;;;;16.80;100.00;96063.34;2108429;28;20028;-59
2023/07/13 02:01:16;;;;;;;23.95;11.90;;;;;;;16.73;100.00;96051.59;2117039;28;20131;-59
2023/07/13 02:02:17;;;;;;;16.67;11.60;;;;;;;16.76;100.00;96059.25;2108377;28;20052;-58
2023/07/13 02:03:19;;;;;;;20.13;13.52;;;;;;;16.76;100.00;96057.47;2108402;28;20048;-59
2023/07/13 02:04:20;;;;;;;20.90;12.68;;;;;;;16.69;100.00;96052.78;2108694;28;20052;-59
2023/07/13 02:05:21;;;;;;;19.23;12.93;;;;;;;16.72;100.00;96058.63;2117505;28;20062;-59
2023/07/13 02:06:23;;;;;;;23.33;12.50;;;;;;;16.75;100.00;96068.06;2117435;28;20479;-60
2023/07/13 02:07:24;;;;;;;21.17;12.68;;;;;;;16.77;100.00;96063.59;2108240;28;20063;-60
2023/07/13 02:08:26;;;;;;;18.63;13.65;;;;;;;16.76;100.00;96065.34;2100542;28;20045;-59
2023/07/13 02:09:27;;;;;;;24.20;13.43;;;;;;;16.77;100.00;96060.97;2108386;28;20522;-59
2023/07/13 02:10:28;;;;;;;21.35;13.90;;;;;;;16.78;100.00;96060.00;2107528;28;20047;-59
2023/07/13 02:11:32;;;;;;;18.00;12.23;;;;;;;16.74;100.00;96063.78;2099600;28;20057;-59
2023/07/13 02:12:34;;;;;;;16.80;11.93;;;;;;;16.72;100.00;96045.50;2108023;28;20079;-59
2023/07/13 02:13:35;;;;;;;23.85;12.35;;;;;;;16.72;100.00;96052.53;2108453;28;20052;-59
2023/07/13 02:14:36;;;;;;;18.75;12.07;;;;;;;16.69;100.00;96058.84;2108642;28;20063;-59
2023/07/13 02:15:43;;;;;;;18.95;12.02;;;;;;;16.62;100.00;96057.59;2108603;28;20419;-59
2023/07/13 02:16:44;;;;;;;21.67;12.60;;;;;;;16.70;100.00;96067.53;2108507;28;20047;-58
2023/07/13 02:17:45;;;;;;;17.25;12.55;;;;;;;16.68;100.00;96065.03;2107825;28;20055;-59
2023/07/13 02:18:46;;;;;;;15.65;11.77;;;;;;;16.70;100.00;96075.41;2108350;28;20530;-58
2023/07/13 02:19:47;;;;;;;20.70;12.50;;;;;;;16.71;100.00;96072.69;2107704;28;20116;-59
2023/07/13 02:20:48;;;;;;;21.02;13.77;;;;;;;16.70;100.00;96063.13;2108477;28;20063;-59
2023/07/13 02:21:49;;;;;;;19.30;12.27;;;;;;;16.68;100.00;96069.44;2107993;28;20052;-58
2023/07/13 02:22:52;;;;;;;12.65;10.20;;;;;;;16.67;100.00;96068.59;2100000;28;20044;-59
2023/07/13 02:23:57;;;;;;;18.30;11.82;;;;;;;16.68;100.00;96065.03;2108549;28;20487;-59
2023/07/13 02:24:58;;;;;;;18.77;11.50;;;;;;;16.58;100.00;96065.81;2109166;28;20059;-58
2023/07/13 02:26:02;;;;;;;18.83;11.00;;;;;;;16.63;100.00;96079.44;2108194;28;20040;-58
2023/07/13 02:27:04;;;;;;;17.15;11.15;;;;;;;16.64;100.00;96081.09;2100264;28;20516;-58
2023/07/13 02:28:05;;;;;;;17.15;11.30;;;;;;;16.64;100.00;96073.22;2099715;28;20473;-58
2023/07/13 02:29:06;;;;;;;15.13;12.57;;;;;;;16.65;100.00;96077.50;2099144;28;20044;-59
2023/07/13 02:30:08;;;;;;;15.13;11.38;;;;;;;16.62;100.00;96075.09;2108222;28;20051;-58
2023/07/13 02:31:11;;;;;;;14.52;10.48;;;;;;;16.60;100.00;96072.63;2116922;28;20047;-58
2023/07/13 02:32:12;;;;;;;16.30;11.68;;;;;;;16.62;100.00;96088.22;2116537;28;20479;-58
2023/07/13 02:33:13;;;;;;;13.80;11.05;;;;;;;16.61;100.00;96082.16;2108995;28;20052;-58
2023/07/13 02:34:15;;;;;;;15.70;11.38;;;;;;;16.59;100.00;96089.28;2109044;28;20066;-58
2023/07/13 02:35:16;;;;;;;15.98;11.60;;;;;;;16.58;100.00;96081.53;2108394;28;20044;-59
2023/07/13 02:36:18;;;;;;;15.07;11.25;;;;;;;16.56;100.00;96089.47;2099526;28;20060;-59
2023/07/13 02:37:20;;;;;;;14.95;9.95;;;;;;;16.54;100.00;96086.13;2099240;28;20380;-58
2023/07/13 02:38:21;;;;;;;16.77;12.13;;;;;;;16.53;100.00;96092.31;2107606;28;20086;-59
2023/07/13 02:39:22;;;;;;;15.68;11.77;;;;;;;16.53;100.00;96082.66;2108848;28;20044;-58
2023/07/13 02:40:23;;;;;;;15.68;11.10;;;;;;;16.56;100.00;96086.03;2108532;28;20051;-58
2023/07/13 02:41:24;;;;;;;17.50;10.82;;;;;;;16.54;100.00;96094.00;2099270;28;20063;-58
2023/07/13 02:42:25;;;;;;;15.00;11.27;;;;;;;16.54;100.00;96102.72;2108114;28;20056;-58
2023/07/13 02:43:26;;;;;;;19.25;11.95;;;;;;;16.54;100.00;96107.97;2108916;28;20155;-58
2023/07/13 02:44:27;;;;;;;16.45;11.48;;;;;;;16.54;100.00;96105.34;2108884;28;20487;-57
2023/07/13 02:45:29;;;;;;;16.15;12.10;;;;;;;16.53;100.00;96108.06;2108617;28;20052;-59
2023/07/13 02:46:30;;;;;;;15.80;11.40;;;;;;;16.53;100.00;96106.25;2108977;28;20055;-59
2023/07/13 02:47:32;;;;;;;18.00;11.82;;;;;;;16.45;100.00;96094.63;2108361;28;20047;-59
2023/07/13 02:48:34;;;;;;;16.95;11.48;;;;;;;16.52;100.00;96111.63;2108449;28;20097;-59
2023/07/13 02:49:35;;;;;;;16.92;11.10;;;;;;;16.50;100.00;96106.47;2107927;28;20055;-59
2023/07/13 02:50:36;;;;;;;18.02;11.80;;;;;;;16.53;100.00;96113.28;2107304;28;20056;-59
2023/07/13 02:51:37;;;;;;;18.38;10.45;;;;;;;16.53;100.00;96110.69;2107653;28;20056;-59
2023/07/13 02:52:38;;;;;;;17.13;10.32;;;;;;;16.49;100.00;96106.56;2107150;28;20515;-59
2023/07/13 02:53:40;;;;;;;20.92;10.30;;;;;;;16.49;100.00;96106.56;2106408;28;20063;-58
2023/07/13 02:54:41;;;;;;;17.52;11.35;;;;;;;16.48;100.00;96102.28;2106621;28;20052;-58
2023/07/13 02:55:47;;;;;;;15.82;10.90;;;;;;;16.49;100.00;96099.56;2106875;28;20051;-59
2023/07/13 02:56:48;;;;;;;17.00;11.38;;;;;;;16.46;100.00;96101.53;2107724;28;20047;-58
2023/07/13 02:57:50;;;;;;;15.63;9.82;;;;;;;16.46;100.00;96102.38;2106913;28;20431;-58
2023/07/13 02:58:51;;;;;;;13.48;10.50;;;;;;;16.47;100.00;96103.25;2098564;28;20053;-58
2023/07/13 02:59:53;;;;;;;15.77;10.38;;;;;;;16.45;100.00;96100.72;2098498;28;20448;-59
2023/07/13 03:00:55;;;;;;;16.15;11.10;;;;;;;16.46;100.00;96105.00;2106797;28;20051;-59
2023/07/13 03:01:56;;;;;;;18.00;11.02;;;;;;;16.48;100.00;96107.53;2106566;28;20451;-59
2023/07/13 03:02:58;;;;;;;18.25;10.45;;;;;;;16.47;100.00;96109.31;2107091;28;20051;-59
2023/07/13 03:04:00;;;;;;;19.40;11.10;;;;;;;16.45;100.00;96116.44;2107073;28;20039;-59
2023/07/13 03:05:01;;;;;;;13.88;9.80;;;;;;;16.43;100.00;96120.94;2106829;28;20441;-58
2023/07/13 03:06:05;;;;;;;13.27;9.20;;;;;;;16.41;100.00;96117.63;2106026;28;20063;-59
2023/07/13 03:07:13;;;;;;;13.57;9.45;;;;;;;16.39;100.00;96109.00;2098963;28;20411;-58
2023/07/13 03:08:14;;;;;;;16.13;10.18;;;;;;;16.41;100.00;96109.75;2098407;28;20044;-58
2023/07/13 03:09:17;;;;;;;12.75;9.70;;;;;;;16.40;100.00;96113.28;2098573;28;20130;-58
2023/07/13 03:10:23;;;;;;;14.25;9.60;;;;;;;16.39;100.00;96116.88;2106767;28;20052;-59
2023/07/13 03:11:26;;;;;;;12.27;8.75;;;;;;;16.36;100.00;96117.09;2097607;28;20064;-59
2023/07/13 03:12:38;;;;;;;11.80;8.65;;;;;;;16.32;100.00;96107.75;2098007;28;20049;-58
2023/07/13 03:13:44;;;;;;;14.38;9.10;;;;;;;16.32;100.00;96123.47;2100165;28;20048;-59
2023/07/13 03:14:46;;;;;;;14.60;8.38;;;;;;;16.27;100.00;96108.03;2097821;28;20056;-59
2023/07/13 03:15:48;;;;;;;12.32;9.35;;;;;;;16.28;100.00;96119.41;2106505;28;20064;-58
2023/07/13 03:16:50;;;;;;;13.05;8.35;;;;;;;16.27;100.00;96122.94;2107168;28;20048;-58
2023/07/13 03:17:51;;;;;;;15.88;8.52;;;;;;;16.25;100.00;96122.19;2107601;28;20036;-57
2023/07/13 03:18:52;;;;;;;14.63;8.68;;;;;;;16.24;100.00;96126.59;2106035;28;20059;-57
2023/07/13 03:19:54;;;;;;;18.00;8.98;;;;;;;16.23;100.00;96124.09;2097685;28;20417;-57
2023/07/13 03:20:55;;;;;;;13.68;8.88;;;;;;;16.23;100.00;96124.09;2098029;28;20048;-57
2023/07/13 03:21:56;;;;;;;12.45;9.50;;;;;;;16.26;100.00;96124.72;2098145;28;20049;-58
2023/07/13 03:22:58;;;;;;;11.80;8.35;;;;;;;16.24;100.00;96128.38;2097765;28;20048;-59
2023/07/13 03:23:59;;;;;;;17.40;10.35;;;;;;;16.25;100.00;96124.81;2106791;28;20066;-59
2023/07/13 03:25:00;;;;;;;13.75;9.70;;;;;;;16.27;100.00;96129.00;2106751;28;20056;-58
2023/07/13 03:26:09;;;;;;;15.38;10.98;;;;;;;16.23;100.00;96116.25;2105677;28;20533;-59
2023/07/13 03:27:10;;;;;;;17.23;9.18;;;;;;;16.23;100.00;96118.88;2099521;28;20052;-57
2023/07/13 03:28:15;;;;;;;18.75;8.88;;;;;;;16.25;100.00;96128.28;2098149;28;20056;-57
2023/07/13 03:29:17;;;;;;;11.63;9.52;;;;;;;16.22;100.00;96118.00;2105791;28;20064;-57
2023/07/13 03:30:19;;;;;;;15.18;9.25;;;;;;;16.24;100.00;96131.00;2105700;28;20055;-57
2023/07/13 03:31:23;;;;;;;13.80;8.70;;;;;;;16.21;100.00;96121.56;2106546;28;20052;-58
2023/07/13 03:32:24;;;;;;;12.20;8.75;;;;;;;16.22;100.00;96122.41;2098036;28;20057;-57
2023/07/13 03:33:25;;;;;;;14.45;8.63;;;;;;;16.23;100.00;96126.72;2098079;28;20052;-57
2023/07/13 03:34:26;;;;;;;12.80;9.80;;;;;;;16.15;100.00;96119.38;2106165;28;20056;-59
2023/07/13 03:35:27;;;;;;;17.52;10.43;;;;;;;16.20;100.00;96132.16;2107002;28;20063;-58
2023/07/13 03:36:29;;;;;;;16.08;10.68;;;;;;;16.20;100.00;96132.16;2107431;28;20039;-59
2023/07/13 03:37:33;;;;;;;16.48;10.02;;;;;;;16.16;100.00;96131.53;2105762;28;20058;-59
2023/07/13 03:38:34;;;;;;;14.13;8.90;;;;;;;16.18;100.00;96129.66;2098261;28;20048;-59
2023/07/13 03:39:37;;;;;;;16.23;9.60;;;;;;;16.14;100.00;96132.56;2106598;28;20539;-59
2023/07/13 03:40:38;;;;;;;15.10;10.23;;;;;;;16.13;100.00;96134.34;2105671;28;20048;-59
2023/07/13 03:41:39;;;;;;;18.98;10.25;;;;;;;16.04;100.00;96116.66;2106543;28;20052;-59
2023/07/13 03:42:41;;;;;;;12.82;7.95;;;;;;;16.07;100.00;96130.38;2106687;28;20359;-59
2023/07/13 03:43:42;;;;;;;17.25;8.52;;;;;;;16.07;100.00;96132.97;2098181;28;20067;-57
2023/07/13 03:44:50;;;;;;;12.02;8.88;;;;;;;16.08;100.00;96136.44;2098247;28;20040;-57
2023/07/13 03:45:51;;;;;;;14.43;8.35;;;;;;;16.06;100.00;96136.56;2099078;28;20037;-58
2023/07/13 03:46:52;;;;;;;12.25;8.63;;;;;;;16.04;100.00;96133.19;2106047;28;20056;-58
2023/07/13 03:47:53;;;;;;;13.45;9.00;;;;;;;16.03;100.00;96139.34;2106452;28;20504;-58
2023/07/13 03:48:54;;;;;;;14.85;8.85;;;;;;;16.04;100.00;96137.59;2098307;28;20052;-58
2023/07/13 03:49:56;;;;;;;16.48;9.23;;;;;;;15.95;100.00;96127.72;2098109;28;20424;-58
2023/07/13 03:50:57;;;;;;;14.25;8.35;;;;;;;16.02;100.00;96144.72;2106404;28;20036;-58
2023/07/13 03:51:59;;;;;;;15.40;9.63;;;;;;;16.01;100.00;96143.00;2106452;28;20040;-58
2023/07/13 03:53:00;;;;;;;14.80;9.25;;;;;;;16.02;100.00;96139.47;2097998;28;20041;-58
2023/07/13 03:54:02;;;;;;;14.90;8.73;;;;;;;15.90;100.00;96128.00;2097536;28;20064;-58
2023/07/13 03:55:03;;;;;;;13.52;8.43;;;;;;;15.98;100.00;96146.69;2097675;28;20045;-59
2023/07/13 03:56:05;;;;;;;14.70;7.68;;;;;;;15.98;100.00;96138.00;2098005;28;20048;-58
2023/07/13 03:57:06;;;;;;;12.82;7.85;;;;;;;16.02;100.00;96144.72;2098061;28;20036;-59
2023/07/13 03:58:29;;;;;;;12.27;7.72;;;;;;;16.03;100.00;96149.84;2097611;28;20060;-58
2023/07/13 03:59:34;;;;;;;12.25;8.20;;;;;;;16.01;100.00;96145.63;2101362;28;20051;-58
2023/07/13 04:00:35;;;;;;;12.07;7.30;;;;;;;16.03;100.00;96149.00;2097225;28;20075;-58
2023/07/13 04:01:36;;;;;;;10.68;7.72;;;;;;;16.04;100.00;96153.31;2105342;28;20435;-58
2023/07/13 04:02:37;;;;;;;11.70;6.88;;;;;;;16.02;100.00;96148.16;2107017;28;20039;-59
2023/07/13 04:03:39;;;;;;;11.77;6.93;;;;;;;15.97;100.00;96133.69;2106662;28;20063;-58
2023/07/13 04:04:40;;;;;;;9.73;6.80;;;;;;;16.04;100.00;96148.06;2105894;28;20055;-59
2023/07/13 04:05:41;;;;;;;9.77;6.40;;;;;;;15.97;100.00;96142.41;2106375;28;20044;-58
2023/07/13 04:06:42;;;;;;;9.32;7.03;;;;;;;16.00;100.00;96146.59;2105807;28;20051;-58
2023/07/13 04:07:46;;;;;;;10.07;6.80;;;;;;;16.04;100.00;96154.16;2106254;28;20048;-59
2023/07/13 04:08:50;;;;;;;10.15;6.53;;;;;;;15.96;100.00;96145.97;2106977;28;20056;-59
2023/07/13 04:09:51;;;;;;;9.55;6.70;;;;;;;16.01;100.00;96163.97;2106717;28;20051;-58
2023/07/13 04:10:52;;;;;;;11.43;6.70;;;;;;;16.02;100.00;96158.66;2106157;28;20077;-58
2023/07/13 04:11:53;;;;;;;9.20;6.40;;;;;;;16.01;100.00;96162.22;2106841;28;20040;-59
2023/07/13 04:12:54;;;;;;;9.23;6.00;;;;;;;16.01;100.00;96163.97;2107000;28;20051;-59
2023/07/13 04:13:55;;;;;;;10.82;6.40;;;;;;;16.03;100.00;96169.94;2106278;28;20055;-59
2023/07/13 04:14:56;;;;;;;10.68;6.75;;;;;;;16.02;100.00;96163.06;2098059;28;20043;-57
2023/07/13 04:15:57;;;;;;;7.85;5.78;;;;;;;16.00;100.00;96168.38;2105590;28;20114;-59
2023/07/13 04:16:58;;;;;;;10.77;6.78;;;;;;;16.01;100.00;96164.84;2106737;28;20480;-58
2023/07/13 04:17:59;;;;;;;8.75;6.30;;;;;;;15.99;100.00;96164.09;2106563;28;20056;-59
2023/07/13 04:19:01;;;;;;;13.25;7.40;;;;;;;16.00;100.00;96160.53;2106838;28;20040;-58
2023/07/13 04:20:02;;;;;;;9.07;6.35;;;;;;;16.01;100.00;96159.59;2107493;28;20378;-63
2023/07/13 04:21:03;;;;;;;13.77;6.55;;;;;;;15.96;100.00;96163.44;2106674;28;20063;-62
2023/07/13 04:22:04;;;;;;;9.82;6.43;;;;;;;15.96;100.00;96164.28;2107009;28;20044;-62
2023/07/13 04:23:05;;;;;;;8.23;5.78;;;;;;;15.99;100.00;96163.25;2106893;28;20036;-63
2023/07/13 04:24:07;;;;;;;9.65;5.88;;;;;;;15.98;100.00;96167.63;2106787;28;20483;-62
2023/07/13 04:25:08;;;;;;;8.98;6.20;;;;;;;15.97;100.00;96168.59;2106921;28;20471;-62
2023/07/13 04:26:09;;;;;;;10.40;6.15;;;;;;;15.94;100.00;96176.66;2106955;28;20447;-62
2023/07/13 04:27:10;;;;;;;9.90;5.82;;;;;;;15.90;100.00;96177.78;2106884;28;20063;-62
2023/07/13 04:28:12;;;;;;;10.05;6.10;;;;;;;15.87;100.00;96164.88;2106596;28;20059;-62
2023/07/13 04:29:13;;;;;;;8.60;5.57;;;;;;;15.84;100.00;96162.47;2107183;28;20046;-63
2023/07/13 04:30:14;;;;;;;9.18;5.93;;;;;;;15.85;100.00;96165.00;2106724;28;20487;-57
2023/07/13 04:31:15;;;;;;;10.20;6.38;;;;;;;15.83;100.00;96160.81;2106953;28;20040;-56
2023/07/13 04:32:16;;;;;;;10.63;6.10;;;;;;;15.87;100.00;96173.56;2106966;28;20028;-59
2023/07/13 04:33:17;;;;;;;10.77;6.72;;;;;;;15.90;100.00;96171.69;2106421;28;20048;-58
2023/07/13 04:34:18;;;;;;;9.15;5.45;;;;;;;15.89;100.00;96173.47;2106513;28;20436;-58
2023/07/13 04:35:23;;;;;;;7.95;4.88;;;;;;;15.80;100.00;96166.25;2107086;28;20131;-59
2023/07/13 04:36:26;;;;;;;10.52;5.20;;;;;;;15.79;100.00;96168.00;2106835;28;20040;-59
2023/07/13 04:37:28;;;;;;;9.23;5.32;;;;;;;15.90;100.00;96183.00;2106673;28;20083;-58
2023/07/13 04:38:30;;;;;;;9.05;5.38;;;;;;;15.83;100.00;96173.91;2106999;28;20431;-59
2023/07/13 04:39:31;;;;;;;7.70;5.40;;;;;;;15.91;100.00;96183.88;2106264;28;20055;-58
2023/07/13 04:40:32;;;;;;;7.43;4.78;;;;;;;15.90;100.00;96183.00;2106276;28;20056;-59
2023/07/13 04:41:33;;;;;;;12.20;5.47;;;;;;;15.86;100.00;96174.53;2106029;28;20055;-59
2023/07/13 04:42:35;;;;;;;8.88;5.43;;;;;;;15.92;100.00;96181.13;2106858;28;20381;-57
2023/07/13 04:43:36;;;;;;;10.85;4.70;;;;;;;15.91;100.00;96184.72;2106504;28;20059;-58
2023/07/13 04:44:37;;;;;;;8.82;5.25;;;;;;;15.89;100.00;96183.97;2106645;28;20044;-57